Santa Filomena, Brazil
Current Conditions -  °F | °C
As of 2:00 PM on Monday 24 Nov 2014 (Local Time) from SBPN Reporting Station
Clear Clear  
Wind Chill: 77°   Ceiling: Unl
Heat Index: 79°   Visibility: 6mi
Dew Point: 70°   Wind: 6mph
Humidity: 78%   Direction: 140°SE
Pressure: 29.85"   Gusts: NA
Location:  9.11°S, 45.92°W
Report Text: SBPN 241700Z 14005KT CAVOK 25/21 Q1011
Loading
Personal Weather Stations






























Interactive Weather Map New forecast layout! Learn more

10-Day Weather Forecast

Advertisements
Track Severe Weather on mobile